Time;durP1;ratioP1;P1;durP2;ratioP2;P2;SDS_P1;SDS_P2;PMS_P1;PMS_P2;Temp;Humidity;BMP_temperature;BMP_pressure;BME280_temperature;BME280_humidity;BME280_pressure;Samples;Min_cycle;Max_cycle;Signal;HPM_P1;HPM_P2
2023/05/07 00:01:12;;;;;;;26.33;14.07;;;;;;;11.76;94.17;95396.38;4988978;28;20233;-68
2023/05/07 00:03:37;;;;;;;27.10;13.70;;;;;;;11.84;93.37;95403.28;4994760;28;20249;-68
2023/05/07 00:06:03;;;;;;;25.77;13.93;;;;;;;11.72;93.47;95400.41;5011718;28;20703;-68
2023/05/07 00:08:28;;;;;;;25.67;13.57;;;;;;;11.64;94.61;95404.97;5021214;28;20308;-68
2023/05/07 00:10:54;;;;;;;23.67;13.33;;;;;;;11.57;95.23;95397.06;5012170;28;20297;-68
2023/05/07 00:13:19;;;;;;;26.87;14.07;;;;;;;11.39;96.24;95407.25;5000969;28;20292;-69
2023/05/07 00:15:45;;;;;;;27.60;13.67;;;;;;;11.25;97.30;95397.66;5013463;28;20233;-67
2023/05/07 00:18:10;;;;;;;24.20;13.47;;;;;;;11.28;97.39;95397.28;5006053;28;20234;-69
2023/05/07 00:20:36;;;;;;;25.70;13.67;;;;;;;11.11;97.49;95396.78;4982483;28;20226;-69
2023/05/07 00:23:01;;;;;;;23.93;13.23;;;;;;;10.92;97.99;95389.56;5022263;28;20716;-69
2023/05/07 00:25:27;;;;;;;26.17;12.67;;;;;;;11.20;97.09;95395.63;4996890;28;20239;-68
2023/05/07 00:27:52;;;;;;;23.73;13.13;;;;;;;11.14;97.16;95385.09;4998576;28;20269;-68
2023/05/07 00:30:17;;;;;;;22.40;12.37;;;;;;;11.19;96.38;95375.69;4983553;28;20699;-68
2023/05/07 00:32:45;;;;;;;26.13;13.00;;;;;;;11.10;96.40;95394.34;5010971;28;20237;-68
2023/05/07 00:35:10;;;;;;;22.07;12.37;;;;;;;11.14;97.17;95387.72;5000675;28;20234;-68
2023/05/07 00:37:36;;;;;;;22.53;11.90;;;;;;;11.09;97.06;95390.91;4986565;28;20261;-69
2023/05/07 00:40:04;;;;;;;20.83;11.07;;;;;;;11.03;96.98;95396.94;5014033;28;20231;-69
2023/05/07 00:42:32;;;;;;;21.23;11.70;;;;;;;11.11;96.80;95398.56;4984249;28;20262;-69
2023/05/07 00:44:57;;;;;;;25.33;11.70;;;;;;;10.99;97.34;95395.69;4985138;28;20226;-69
2023/05/07 00:47:23;;;;;;;25.37;11.83;;;;;;;11.12;96.67;95395.78;4995496;28;20755;-70
2023/05/07 00:49:48;;;;;;;20.53;11.60;;;;;;;11.20;96.35;95392.22;5006782;28;20229;-68
2023/05/07 00:52:15;;;;;;;23.87;11.97;;;;;;;11.18;96.49;95395.00;5002144;28;20701;-70
2023/05/07 00:54:41;;;;;;;22.13;11.40;;;;;;;11.12;96.49;95393.16;5000088;28;20218;-68
2023/05/07 00:57:06;;;;;;;23.80;11.87;;;;;;;11.12;96.75;95398.41;5023705;28;20773;-68
2023/05/07 00:59:32;;;;;;;25.10;11.87;;;;;;;10.91;97.49;95405.50;4996809;28;20226;-69
2023/05/07 01:01:57;;;;;;;20.27;11.47;;;;;;;10.88;97.52;95404.06;4988257;28;20262;-68
2023/05/07 01:04:23;;;;;;;23.13;11.93;;;;;;;10.75;98.96;95396.09;5015122;28;20238;-68
2023/05/07 01:06:49;;;;;;;22.70;11.93;;;;;;;10.71;98.47;95395.66;5014023;28;20230;-69
2023/05/07 01:09:15;;;;;;;23.40;11.53;;;;;;;10.71;98.57;95400.91;4989375;28;20329;-69
2023/05/07 01:11:40;;;;;;;23.00;12.07;;;;;;;10.69;98.65;95407.31;5017614;28;20677;-68
2023/05/07 01:14:06;;;;;;;22.10;11.20;;;;;;;10.68;98.52;95397.84;4994942;28;20242;-69
2023/05/07 01:16:31;;;;;;;20.30;11.40;;;;;;;10.72;98.23;95396.47;5011228;28;20237;-69
2023/05/07 01:18:56;;;;;;;21.47;11.43;;;;;;;10.66;98.30;95398.03;4994521;28;20238;-69
2023/05/07 01:21:26;;;;;;;18.50;10.80;;;;;;;10.70;97.91;95401.06;5012207;28;20769;-68
2023/05/07 01:23:51;;;;;;;24.03;11.33;;;;;;;10.58;99.02;95395.53;5000676;28;20241;-69
2023/05/07 01:26:19;;;;;;;18.67;10.53;;;;;;;10.69;97.90;95397.66;4998026;28;20227;-68
2023/05/07 01:28:45;;;;;;;20.63;10.60;;;;;;;10.53;98.45;95395.28;5006720;28;20239;-68
2023/05/07 01:31:10;;;;;;;18.07;10.20;;;;;;;10.58;98.78;95397.38;5005851;28;20637;-68
2023/05/07 01:33:36;;;;;;;18.07;9.63;;;;;;;10.45;99.20;95398.03;4997683;28;20234;-69
2023/05/07 01:36:03;;;;;;;20.47;9.73;;;;;;;10.43;98.95;95396.59;5001727;28;20235;-68
2023/05/07 01:38:28;;;;;;;15.50;8.93;;;;;;;10.40;99.07;95399.59;5000620;28;20259;-70
2023/05/07 01:40:54;;;;;;;15.17;9.13;;;;;;;10.51;98.78;95394.66;4988103;28;20234;-68
2023/05/07 01:43:19;;;;;;;16.93;9.10;;;;;;;10.40;98.47;95389.94;5004880;28;20624;-69
2023/05/07 01:45:45;;;;;;;16.27;9.07;;;;;;;10.35;99.46;95394.91;4983026;28;20237;-68
2023/05/07 01:48:10;;;;;;;16.87;8.20;;;;;;;10.54;97.49;95385.63;4987540;28;20300;-69
2023/05/07 01:50:36;;;;;;;15.10;8.40;;;;;;;10.29;99.02;95382.59;5002602;28;20284;-68
2023/05/07 01:53:01;;;;;;;13.93;8.20;;;;;;;10.26;100.00;95376.91;4985931;28;20252;-70
2023/05/07 01:55:27;;;;;;;13.70;7.60;;;;;;;10.50;98.01;95377.34;5024616;28;20618;-68
2023/05/07 01:57:52;;;;;;;14.13;7.73;;;;;;;10.51;97.93;95370.28;5024982;28;20242;-68
2023/05/07 02:00:18;;;;;;;13.43;7.00;;;;;;;10.53;96.77;95371.72;4997609;28;20312;-69
2023/05/07 02:02:44;;;;;;;13.63;7.17;;;;;;;10.62;95.15;95367.19;4991000;28;20234;-69
2023/05/07 02:05:10;;;;;;;9.97;6.70;;;;;;;10.54;94.89;95373.34;5013060;28;20469;-70
2023/05/07 02:07:35;;;;;;;11.77;6.60;;;;;;;10.68;94.66;95364.63;5007354;28;20245;-69
2023/05/07 02:10:00;;;;;;;13.87;7.30;;;;;;;10.68;94.86;95356.75;4980915;28;20219;-69
2023/05/07 02:12:26;;;;;;;12.70;6.83;;;;;;;10.62;94.46;95351.47;5016403;28;20242;-69
2023/05/07 02:14:51;;;;;;;9.93;6.80;;;;;;;10.78;94.15;95343.34;5007218;28;20225;-68
2023/05/07 02:17:17;;;;;;;14.30;6.57;;;;;;;10.94;93.76;95348.28;5005334;28;20242;-69
2023/05/07 02:19:42;;;;;;;13.53;7.27;;;;;;;11.27;92.81;95354.53;5001991;28;20223;-69
2023/05/07 02:22:09;;;;;;;13.13;7.33;;;;;;;11.29;92.49;95347.34;5015584;28;21156;-69
2023/05/07 02:24:35;;;;;;;13.10;7.27;;;;;;;11.10;92.81;95350.63;4997029;28;20222;-69
2023/05/07 02:27:01;;;;;;;13.57;7.43;;;;;;;11.00;93.24;95351.97;4984488;28;20797;-70
2023/05/07 02:29:26;;;;;;;12.97;7.47;;;;;;;11.05;93.54;95357.44;5005490;28;20237;-69
2023/05/07 02:31:52;;;;;;;14.30;7.70;;;;;;;10.96;93.70;95356.78;5009021;28;20242;-69
2023/05/07 02:34:18;;;;;;;13.20;7.90;;;;;;;11.06;94.18;95345.94;5008866;28;20231;-69
2023/05/07 02:36:44;;;;;;;14.63;8.50;;;;;;;11.14;93.77;95351.06;5014133;28;20283;-70
2023/05/07 02:39:09;;;;;;;16.80;8.83;;;;;;;11.28;93.75;95355.38;4981411;28;20742;-70
2023/05/07 02:41:34;;;;;;;15.40;8.70;;;;;;;11.26;94.30;95350.31;5004003;28;20653;-69
2023/05/07 02:44:00;;;;;;;17.33;9.07;;;;;;;11.20;95.33;95343.22;4996316;28;20712;-69
2023/05/07 02:46:25;;;;;;;14.83;9.07;;;;;;;11.25;95.21;95353.13;4982307;28;20270;-71
2023/05/07 02:48:51;;;;;;;13.13;9.53;;;;;;;11.21;95.87;95350.09;5000077;28;20231;-69
2023/05/07 02:51:19;;;;;;;14.80;9.47;;;;;;;11.33;95.94;95352.97;4996923;28;20227;-70
2023/05/07 02:53:45;;;;;;;17.53;9.63;;;;;;;11.34;95.72;95354.59;4996964;28;20237;-70
2023/05/07 02:56:11;;;;;;;16.00;9.70;;;;;;;11.41;95.46;95356.28;5001537;28;20231;-69
2023/05/07 02:58:36;;;;;;;16.30;9.80;;;;;;;11.30;96.03;95356.78;4983784;28;20234;-69
2023/05/07 03:01:02;;;;;;;17.70;10.17;;;;;;;11.30;96.19;95353.34;5014843;28;20242;-69
2023/05/07 03:03:27;;;;;;;17.17;10.20;;;;;;;11.25;96.56;95366.22;4997581;28;20321;-69
2023/05/07 03:05:53;;;;;;;17.47;10.80;;;;;;;11.40;96.23;95364.31;5012110;28;20250;-69
2023/05/07 03:08:18;;;;;;;16.57;10.17;;;;;;;11.39;96.19;95360.09;4985258;28;20234;-69
2023/05/07 03:10:44;;;;;;;16.87;10.63;;;;;;;11.50;96.38;95373.44;4982768;28;20293;-69
2023/05/07 03:13:09;;;;;;;15.10;9.90;;;;;;;11.50;96.26;95372.63;5012736;28;20241;-71
2023/05/07 03:15:35;;;;;;;18.93;10.47;;;;;;;11.55;96.28;95377.28;5022234;28;20223;-70
2023/05/07 03:18:00;;;;;;;15.73;10.23;;;;;;;11.39;96.46;95378.44;4991277;28;20622;-69
2023/05/07 03:20:26;;;;;;;18.23;10.37;;;;;;;11.27;97.13;95375.50;4997737;28;20738;-69
2023/05/07 03:22:51;;;;;;;15.43;10.10;;;;;;;11.29;96.96;95380.59;4999169;28;20615;-68
2023/05/07 03:25:17;;;;;;;17.20;9.77;;;;;;;11.27;96.49;95379.97;5013691;28;20233;-68
2023/05/07 03:27:42;;;;;;;17.80;9.90;;;;;;;11.21;97.51;95378.09;5011390;28;20234;-69
2023/05/07 03:30:08;;;;;;;16.33;9.90;;;;;;;11.17;97.57;95382.13;5002372;28;20239;-69
2023/05/07 03:32:35;;;;;;;16.53;10.33;;;;;;;11.18;97.33;95381.09;5014406;28;20312;-68
2023/05/07 03:35:00;;;;;;;20.17;10.30;;;;;;;10.92;99.39;95380.91;5015484;28;20245;-69
2023/05/07 03:37:26;;;;;;;17.50;10.63;;;;;;;10.94;99.79;95384.16;5006405;28;20675;-69
2023/05/07 03:39:51;;;;;;;19.23;10.83;;;;;;;11.04;98.79;95385.44;4998592;28;20221;-69
2023/05/07 03:42:17;;;;;;;17.30;10.83;;;;;;;11.01;99.83;95393.66;5014322;28;20812;-69
2023/05/07 03:44:42;;;;;;;17.47;11.23;;;;;;;11.04;100.00;95395.91;4995362;28;20288;-69
2023/05/07 03:47:08;;;;;;;22.23;10.53;;;;;;;11.02;99.80;95394.47;4998290;28;20238;-69
2023/05/07 03:49:33;;;;;;;18.27;10.73;;;;;;;10.99;100.00;95395.69;5001070;28;20229;-69
2023/05/07 03:51:59;;;;;;;19.97;10.27;;;;;;;11.18;99.14;95391.56;4999542;28;20230;-70
2023/05/07 03:54:24;;;;;;;18.30;10.70;;;;;;;11.10;98.96;95391.72;5020595;28;20234;-69
2023/05/07 03:56:50;;;;;;;20.23;10.40;;;;;;;11.28;98.00;95394.66;5020502;28;20739;-69
2023/05/07 03:59:15;;;;;;;18.97;11.10;;;;;;;11.22;98.21;95405.94;4994648;28;20748;-69
2023/05/07 04:01:41;;;;;;;16.90;10.33;;;;;;;11.29;98.16;95402.34;5001276;28;20252;-69
2023/05/07 04:04:06;;;;;;;18.20;10.83;;;;;;;11.17;98.66;95405.69;5011895;28;20281;-69
2023/05/07 04:06:31;;;;;;;18.93;10.97;;;;;;;11.21;98.59;95417.41;4978405;28;20235;-68
2023/05/07 04:08:57;;;;;;;19.40;11.23;;;;;;;11.31;98.24;95418.69;5011759;28;20215;-69
2023/05/07 04:11:22;;;;;;;18.63;10.97;;;;;;;11.42;97.19;95415.53;4982254;28;20309;-69
2023/05/07 04:13:48;;;;;;;21.20;10.57;;;;;;;11.36;97.42;95425.97;5021055;28;20222;-68
2023/05/07 04:16:13;;;;;;;18.47;10.63;;;;;;;11.48;97.15;95425.25;5012073;28;20229;-69
2023/05/07 04:18:39;;;;;;;18.97;10.70;;;;;;;11.47;97.62;95430.69;5000803;28;20226;-68
2023/05/07 04:21:05;;;;;;;18.30;11.03;;;;;;;11.49;97.42;95436.53;5005420;28;20230;-68
2023/05/07 04:23:30;;;;;;;18.53;10.63;;;;;;;11.64;96.94;95439.88;4998415;28;20309;-69
2023/05/07 04:25:57;;;;;;;18.50;10.50;;;;;;;11.62;96.71;95443.69;5020517;28;20223;-69
2023/05/07 04:28:22;;;;;;;16.87;10.17;;;;;;;11.73;96.22;95445.78;5011477;28;20317;-69
2023/05/07 04:30:48;;;;;;;18.57;10.50;;;;;;;11.76;95.43;95455.88;4993323;28;20341;-69
2023/05/07 04:33:14;;;;;;;21.63;10.53;;;;;;;11.93;93.12;95454.56;5009702;28;20239;-70
2023/05/07 04:35:40;;;;;;;21.07;10.93;;;;;;;11.85;93.00;95454.72;5005566;28;20230;-70
2023/05/07 04:38:05;;;;;;;23.20;11.60;;;;;;;11.93;92.17;95460.63;5003110;28;20246;-70
2023/05/07 04:40:31;;;;;;;20.20;10.57;;;;;;;12.01;90.62;95464.91;5023108;28;20222;-70
2023/05/07 04:42:56;;;;;;;21.00;11.27;;;;;;;12.01;91.97;95463.06;5020066;28;20241;-70
2023/05/07 04:45:22;;;;;;;19.97;10.93;;;;;;;12.12;90.61;95454.66;5002190;28;20233;-69
2023/05/07 04:47:47;;;;;;;20.87;10.50;;;;;;;12.26;89.69;95463.41;5004665;28;20250;-69
2023/05/07 04:50:13;;;;;;;17.43;10.43;;;;;;;12.23;89.38;95455.91;5023242;28;20809;-70
2023/05/07 04:52:38;;;;;;;18.93;10.73;;;;;;;12.30;89.30;95462.00;5007383;28;20225;-69
2023/05/07 04:55:04;;;;;;;18.10;10.50;;;;;;;12.46;88.69;95456.41;5018486;28;20221;-69
2023/05/07 04:57:32;;;;;;;18.23;10.80;;;;;;;12.47;88.41;95455.38;4985644;28;20237;-69
2023/05/07 04:59:58;;;;;;;21.30;11.33;;;;;;;12.53;88.92;95465.13;5016265;28;20225;-70
2023/05/07 05:02:26;;;;;;;18.90;11.27;;;;;;;12.62;88.08;95457.84;5016924;28;20256;-69
2023/05/07 05:04:52;;;;;;;17.57;10.77;;;;;;;12.82;87.14;95456.09;5020995;28;20301;-70
2023/05/07 05:07:17;;;;;;;17.70;10.53;;;;;;;14.80;78.01;95458.94;5020177;28;20292;-69
2023/05/07 05:09:42;;;;;;;21.93;10.80;;;;;;;15.04;76.96;95457.34;5003844;28;20225;-69
2023/05/07 05:12:08;;;;;;;19.27;10.33;;;;;;;16.03;72.50;95449.38;5000355;28;20289;-69
2023/05/07 05:14:33;;;;;;;19.47;10.50;;;;;;;15.06;77.00;95457.13;5017569;28;20219;-70
2023/05/07 05:16:59;;;;;;;18.53;10.33;;;;;;;15.88;74.88;95454.22;4992730;28;20234;-70
2023/05/07 05:19:24;;;;;;;15.90;9.77;;;;;;;17.38;68.92;95462.84;5023973;28;20238;-68
2023/05/07 05:21:50;;;;;;;19.70;10.00;;;;;;;19.11;62.82;95460.13;5024861;28;20230;-68
2023/05/07 05:24:18;;;;;;;19.03;9.83;;;;;;;19.41;61.32;95460.69;5005074;28;20280;-70
2023/05/07 05:26:43;;;;;;;14.63;10.30;;;;;;;18.33;64.83;95463.41;5000331;28;20252;-69
2023/05/07 05:29:09;;;;;;;14.73;10.23;;;;;;;17.12;70.36;95455.31;5025670;28;20663;-72
2023/05/07 05:31:36;;;;;;;14.27;9.77;;;;;;;17.27;69.64;95457.50;4999374;28;20235;-70
2023/05/07 05:34:02;;;;;;;15.37;10.47;;;;;;;16.87;72.00;95464.41;5025706;28;20241;-70
2023/05/07 05:36:27;;;;;;;17.67;11.03;;;;;;;16.19;73.24;95467.31;4998880;28;21043;-69
2023/05/07 05:38:53;;;;;;;18.50;10.83;;;;;;;16.43;73.51;95460.31;5001997;28;20233;-69
2023/05/07 05:41:18;;;;;;;17.63;10.70;;;;;;;16.22;74.65;95466.03;5016741;28;20221;-70
2023/05/07 05:43:44;;;;;;;16.90;10.73;;;;;;;15.68;76.01;95457.06;4998973;28;20231;-69
2023/05/07 05:46:11;;;;;;;17.80;10.83;;;;;;;16.09;76.02;95464.34;5002809;28;20295;-71
2023/05/07 05:48:36;;;;;;;16.20;10.53;;;;;;;16.38;74.20;95460.16;4989508;28;20226;-69
2023/05/07 05:51:02;;;;;;;18.00;10.67;;;;;;;16.41;74.58;95459.69;5005412;28;20234;-70
2023/05/07 05:53:28;;;;;;;18.57;10.80;;;;;;;16.63;72.88;95461.69;4999606;28;20234;-70
2023/05/07 05:55:53;;;;;;;16.70;10.70;;;;;;;16.59;73.70;95455.25;5002838;28;20237;-69
2023/05/07 05:58:19;;;;;;;18.50;10.63;;;;;;;16.89;72.98;95457.88;5008687;28;20258;-70
2023/05/07 06:00:45;;;;;;;18.37;10.80;;;;;;;16.60;75.23;95459.50;5008199;28;20233;-69
2023/05/07 06:03:11;;;;;;;18.57;10.93;;;;;;;16.19;75.18;95465.44;4998224;28;20778;-69
2023/05/07 06:05:36;;;;;;;20.67;11.30;;;;;;;16.28;75.91;95465.16;4999927;28;20234;-69
2023/05/07 06:08:02;;;;;;;19.73;11.27;;;;;;;16.16;75.95;95470.38;5000052;28;20300;-68
2023/05/07 06:10:28;;;;;;;18.33;11.13;;;;;;;16.17;75.20;95467.50;5015808;28;20222;-69
2023/05/07 06:12:53;;;;;;;18.43;11.27;;;;;;;16.11;75.98;95463.13;5015519;28;20254;-69
2023/05/07 06:15:18;;;;;;;19.07;11.17;;;;;;;16.07;74.83;95463.78;5001466;28;20234;-69
2023/05/07 06:17:44;;;;;;;17.70;10.93;;;;;;;16.11;75.28;95462.28;5012785;28;20276;-69
2023/05/07 06:20:10;;;;;;;20.90;11.30;;;;;;;16.65;74.02;95456.16;5001777;28;20249;-69
2023/05/07 06:22:35;;;;;;;17.87;11.10;;;;;;;16.73;73.00;95456.69;4999111;28;20226;-68
2023/05/07 06:25:01;;;;;;;19.53;11.03;;;;;;;16.92;73.29;95454.78;5014937;28;20230;-70
2023/05/07 06:27:27;;;;;;;18.30;10.70;;;;;;;16.57;75.72;95456.50;5012504;28;20253;-68
2023/05/07 06:29:53;;;;;;;20.27;11.50;;;;;;;16.39;76.10;95444.06;5004985;28;20338;-70
2023/05/07 06:32:18;;;;;;;20.63;12.07;;;;;;;16.41;75.72;95444.66;4999393;28;20764;-68
2023/05/07 06:34:44;;;;;;;19.10;11.43;;;;;;;16.53;74.27;95442.91;4999546;28;20623;-68
2023/05/07 06:37:10;;;;;;;23.87;11.73;;;;;;;16.67;73.57;95446.22;4997148;28;20256;-70
2023/05/07 06:39:35;;;;;;;19.87;12.10;;;;;;;16.83;73.35;95448.22;4997900;28;20231;-70
2023/05/07 06:42:02;;;;;;;18.70;11.80;;;;;;;16.87;74.09;95441.44;5017231;28;20225;-68
2023/05/07 06:44:27;;;;;;;15.13;10.83;;;;;;;16.79;72.78;95445.19;4998595;28;20266;-69
2023/05/07 06:46:53;;;;;;;20.40;11.60;;;;;;;16.83;71.99;95435.81;5007718;28;20258;-69
2023/05/07 06:49:18;;;;;;;19.37;11.40;;;;;;;16.87;72.58;95424.75;5002825;28;20215;-69
2023/05/07 06:51:44;;;;;;;20.00;11.77;;;;;;;17.35;71.46;95428.88;4980934;28;20250;-69
2023/05/07 06:54:09;;;;;;;19.43;11.63;;;;;;;17.55;71.46;95430.44;5000769;28;20223;-73
2023/05/07 06:56:35;;;;;;;19.77;11.90;;;;;;;17.53;70.23;95424.56;5023260;28;20289;-69
2023/05/07 06:59:01;;;;;;;19.83;11.60;;;;;;;17.49;72.53;95435.56;5025041;28;20234;-68
2023/05/07 07:01:26;;;;;;;18.03;11.50;;;;;;;17.42;71.87;95431.41;4983076;28;20234;-69
2023/05/07 07:03:52;;;;;;;20.70;12.27;;;;;;;17.50;71.37;95429.22;5023663;28;20222;-68
2023/05/07 07:06:17;;;;;;;21.13;11.33;;;;;;;17.53;72.25;95429.84;5002648;28;20301;-69
2023/05/07 07:08:43;;;;;;;19.07;11.33;;;;;;;17.54;70.80;95426.97;4996979;28;20303;-70
2023/05/07 07:11:09;;;;;;;17.60;11.43;;;;;;;17.76;68.04;95429.84;4982466;28;20246;-69
2023/05/07 07:13:34;;;;;;;19.33;11.07;;;;;;;18.14;68.64;95433.59;4990708;28;20231;-69
2023/05/07 07:16:00;;;;;;;20.20;11.70;;;;;;;17.95;68.85;95424.19;5007994;28;20241;-69
2023/05/07 07:18:25;;;;;;;21.63;13.20;;;;;;;17.80;68.52;95423.03;5014613;28;20280;-69
2023/05/07 07:20:51;;;;;;;20.47;12.57;;;;;;;17.66;68.12;95419.03;5018235;28;20222;-70
2023/05/07 07:23:17;;;;;;;20.50;11.30;;;;;;;18.10;68.94;95421.06;5015017;28;20234;-70
2023/05/07 07:25:42;;;;;;;20.23;12.27;;;;;;;18.41;68.11;95417.19;5007802;28;20234;-68
2023/05/07 07:28:08;;;;;;;19.10;11.83;;;;;;;18.39;68.36;95420.03;5005493;28;20273;-68
2023/05/07 07:30:33;;;;;;;17.33;11.10;;;;;;;18.38;67.21;95415.00;5013193;28;20736;-68
2023/05/07 07:33:02;;;;;;;19.73;11.07;;;;;;;18.48;66.75;95418.69;4997256;28;20388;-69
2023/05/07 07:35:34;;;;;;;20.13;11.17;;;;;;;18.74;65.28;95412.00;5000112;28;20226;-69
2023/05/07 07:38:00;;;;;;;16.37;10.87;;;;;;;18.73;65.32;95424.44;5022786;28;20230;-69
2023/05/07 07:40:25;;;;;;;18.07;10.83;;;;;;;18.81;65.35;95424.09;4998847;28;20227;-69
2023/05/07 07:42:52;;;;;;;19.93;11.93;;;;;;;18.72;66.03;95438.75;5018441;28;20800;-69
2023/05/07 07:45:18;;;;;;;18.27;10.83;;;;;;;18.91;65.35;95427.94;4978025;28;20313;-69
2023/05/07 07:47:44;;;;;;;20.30;11.23;;;;;;;18.97;65.41;95432.28;5029398;28;20333;-70
2023/05/07 07:50:10;;;;;;;18.43;10.97;;;;;;;19.01;62.43;95428.13;4999320;28;20231;-72
2023/05/07 07:52:35;;;;;;;19.60;10.70;;;;;;;19.05;63.35;95432.72;5005156;28;20234;-69
2023/05/07 07:55:01;;;;;;;18.87;11.10;;;;;;;19.19;63.82;95433.22;5014050;28;20265;-70
2023/05/07 07:57:27;;;;;;;17.23;10.93;;;;;;;19.07;63.67;95437.78;5006358;28;20242;-69
2023/05/07 07:59:52;;;;;;;20.07;11.10;;;;;;;19.23;63.11;95434.34;4990660;28;20254;-70
2023/05/07 08:02:17;;;;;;;19.17;10.60;;;;;;;19.43;64.02;95430.22;5009713;28;20239;-70
2023/05/07 08:04:43;;;;;;;20.27;10.23;;;;;;;18.82;61.16;95427.50;5003841;28;20234;-68
2023/05/07 08:07:11;;;;;;;17.67;10.83;;;;;;;18.73;61.19;95429.75;5023148;28;20700;-69
2023/05/07 08:09:40;;;;;;;17.17;10.40;;;;;;;18.83;60.70;95426.47;5003224;28;20237;-69
2023/05/07 08:12:06;;;;;;;17.93;9.87;;;;;;;18.99;60.87;95432.84;4991993;28;20627;-69
2023/05/07 08:14:32;;;;;;;17.03;10.50;;;;;;;19.28;60.89;95419.31;4985203;28;20234;-69
2023/05/07 08:16:57;;;;;;;15.23;9.93;;;;;;;19.70;61.18;95424.22;4981873;28;20243;-70
2023/05/07 08:19:23;;;;;;;16.10;9.80;;;;;;;19.83;58.77;95427.34;4994620;28;20234;-69
2023/05/07 08:21:48;;;;;;;15.23;9.43;;;;;;;19.70;58.95;95409.09;5005253;28;20222;-68
2023/05/07 08:24:14;;;;;;;16.07;9.10;;;;;;;19.79;59.93;95420.91;4998170;28;20257;-69
2023/05/07 08:26:40;;;;;;;17.87;9.73;;;;;;;20.19;58.37;95415.34;5004988;28;20700;-69
2023/05/07 08:29:05;;;;;;;15.07;9.67;;;;;;;20.26;57.46;95408.00;5022123;28;20238;-69
2023/05/07 08:31:31;;;;;;;18.87;9.50;;;;;;;20.40;59.30;95411.09;5012119;28;20238;-69
2023/05/07 08:33:57;;;;;;;16.80;8.87;;;;;;;20.31;57.11;95408.06;4998897;28;20245;-71
2023/05/07 08:36:23;;;;;;;16.07;9.73;;;;;;;20.61;57.38;95403.09;4979396;28;20231;-69
2023/05/07 08:38:49;;;;;;;12.70;9.00;;;;;;;20.68;58.32;95402.91;4980830;28;20261;-70
2023/05/07 08:41:15;;;;;;;17.43;10.10;;;;;;;20.51;57.37;95413.66;5003834;28;20254;-70
2023/05/07 08:43:40;;;;;;;17.37;9.87;;;;;;;20.51;56.98;95407.50;4990474;28;20226;-69
2023/05/07 08:46:06;;;;;;;15.10;9.53;;;;;;;20.63;56.38;95403.66;5005046;28;20685;-70
2023/05/07 08:48:31;;;;;;;14.20;9.00;;;;;;;20.83;57.07;95403.88;4999071;28;20615;-69
2023/05/07 08:50:58;;;;;;;16.10;8.90;;;;;;;21.07;57.20;95399.06;4983100;28;20758;-69
2023/05/07 08:53:23;;;;;;;13.20;8.33;;;;;;;20.90;55.38;95394.91;4997025;28;20233;-70
2023/05/07 08:55:49;;;;;;;14.90;8.67;;;;;;;21.00;54.54;95395.78;4999848;28;20230;-69
2023/05/07 08:58:15;;;;;;;15.53;8.57;;;;;;;20.80;54.26;95391.06;4996290;28;20918;-69
2023/05/07 09:00:40;;;;;;;12.97;7.97;;;;;;;21.04;54.47;95386.22;5005682;28;20883;-69
2023/05/07 09:03:05;;;;;;;13.37;7.30;;;;;;;21.07;53.32;95390.25;5000118;28;20245;-69
2023/05/07 09:05:31;;;;;;;12.90;7.20;;;;;;;21.53;51.09;95391.44;5016069;28;20821;-68
2023/05/07 09:07:59;;;;;;;11.23;6.60;;;;;;;21.64;51.11;95385.13;5006923;28;20257;-69
2023/05/07 09:10:25;;;;;;;11.27;6.57;;;;;;;21.68;50.75;95380.88;5000702;28;20243;-69
2023/05/07 09:12:51;;;;;;;17.53;7.10;;;;;;;21.47;48.99;95379.94;5020184;28;20241;-70
2023/05/07 09:15:17;;;;;;;12.40;6.27;;;;;;;21.35;50.87;95385.44;4993085;28;20234;-69
2023/05/07 09:17:43;;;;;;;10.03;6.70;;;;;;;21.67;49.35;95377.41;4998902;28;20298;-70
2023/05/07 09:20:09;;;;;;;12.40;6.33;;;;;;;21.84;49.35;95375.44;5021622;28;20268;-69
2023/05/07 09:22:37;;;;;;;17.93;6.37;;;;;;;21.88;50.12;95373.03;5006093;28;20715;-69
2023/05/07 09:25:04;;;;;;;10.97;6.13;;;;;;;21.89;48.47;95380.78;5009803;28;20227;-69
2023/05/07 09:27:30;;;;;;;14.27;5.93;;;;;;;21.83;49.06;95370.34;4980774;28;21086;-69
2023/05/07 09:29:56;;;;;;;30.73;6.73;;;;;;;21.74;48.74;95370.00;4988755;28;20786;-69
2023/05/07 09:32:22;;;;;;;14.27;5.80;;;;;;;21.93;48.24;95365.06;4995582;28;20238;-69
2023/05/07 09:34:47;;;;;;;48.23;7.23;;;;;;;22.21;48.17;95359.31;5014385;28;20238;-69
2023/05/07 09:37:14;;;;;;;12.23;6.60;;;;;;;22.10;47.84;95355.81;5013895;28;20299;-69
2023/05/07 09:39:46;;;;;;;10.80;6.47;;;;;;;22.27;48.17;95360.16;5010461;28;20223;-69
2023/05/07 09:42:11;;;;;;;9.77;5.40;;;;;;;22.32;46.47;95355.66;5017906;28;20230;-70
2023/05/07 09:44:37;;;;;;;10.10;5.53;;;;;;;22.46;46.68;95358.63;5010361;28;20361;-69
2023/05/07 09:47:04;;;;;;;10.50;5.80;;;;;;;22.28;44.55;95359.91;4997103;28;20320;-70
2023/05/07 09:49:30;;;;;;;11.17;5.47;;;;;;;22.46;45.01;95350.59;4975870;28;20683;-69
2023/05/07 09:51:56;;;;;;;11.27;5.93;;;;;;;22.08;44.59;95347.28;5000328;28;20238;-70
2023/05/07 09:54:22;;;;;;;10.70;5.80;;;;;;;22.55;45.76;95343.69;5014792;28;20235;-70
2023/05/07 09:56:50;;;;;;;10.77;5.20;;;;;;;22.69;43.45;95350.97;5001175;28;20241;-71
2023/05/07 09:59:16;;;;;;;9.77;5.70;;;;;;;22.81;43.47;95349.94;5001772;28;20245;-69
2023/05/07 10:01:42;;;;;;;8.93;5.72;;;;;;;23.18;45.35;95343.28;5000014;28;20264;-70
2023/05/07 10:04:08;;;;;;;10.23;5.33;;;;;;;23.09;42.82;95341.41;5024675;28;20245;-70
2023/05/07 10:06:34;;;;;;;9.63;5.05;;;;;;;23.03;42.14;95337.13;5017848;28;20662;-70
2023/05/07 10:09:00;;;;;;;6.28;4.20;;;;;;;22.88;40.60;95345.13;5025799;28;20237;-70
2023/05/07 10:11:25;;;;;;;6.03;4.50;;;;;;;23.06;41.77;95339.25;4983851;28;20253;-70
2023/05/07 10:13:51;;;;;;;9.70;4.85;;;;;;;22.85;40.73;95333.13;5000755;28;20233;-70
2023/05/07 10:16:17;;;;;;;6.95;4.47;;;;;;;23.14;41.32;95330.72;5019422;28;20230;-70
2023/05/07 10:18:42;;;;;;;6.90;4.40;;;;;;;23.08;41.25;95329.91;5007952;28;20654;-69
2023/05/07 10:21:11;;;;;;;5.75;3.67;;;;;;;23.35;39.70;95327.00;4981083;28;20252;-70
2023/05/07 10:23:36;;;;;;;7.07;4.03;;;;;;;23.26;38.47;95324.00;5000035;28;20628;-69
2023/05/07 10:26:03;;;;;;;6.93;4.22;;;;;;;22.98;40.24;95326.44;5013774;28;20296;-70
2023/05/07 10:28:31;;;;;;;9.48;4.80;;;;;;;23.07;40.05;95322.19;5008375;28;20716;-69
2023/05/07 10:31:18;;;;;;;6.53;4.60;;;;;;;23.09;39.88;95312.03;5000611;28;20759;-68
2023/05/07 10:33:44;;;;;;;7.18;4.30;;;;;;;23.32;39.20;95312.28;5016561;28;20247;-70
2023/05/07 10:36:10;;;;;;;6.50;4.35;;;;;;;23.48;38.79;95309.63;4998119;28;20300;-72
2023/05/07 10:38:35;;;;;;;7.78;4.60;;;;;;;23.56;38.24;95299.16;5008808;28;20226;-71
2023/05/07 10:41:01;;;;;;;9.68;4.47;;;;;;;23.43;36.48;95303.19;5013991;28;20235;-70
2023/05/07 10:43:43;;;;;;;10.25;4.32;;;;;;;23.42;38.81;95306.94;5015066;28;20243;-71
2023/05/07 10:46:16;;;;;;;5.75;4.38;;;;;;;23.57;37.48;95305.31;5024510;28;20238;-70
2023/05/07 10:49:00;;;;;;;5.80;4.30;;;;;;;23.65;38.72;95310.09;5017221;28;20238;-70
2023/05/07 10:51:26;;;;;;;7.38;4.40;;;;;;;23.83;40.16;95296.16;5014405;28;20324;-70
2023/05/07 10:54:10;;;;;;;6.05;4.50;;;;;;;23.54;38.03;95295.97;5008011;28;20301;-69
2023/05/07 10:56:39;;;;;;;6.07;4.65;;;;;;;23.72;38.82;95290.03;5016674;28;20234;-71
2023/05/07 10:59:20;;;;;;;6.68;4.68;;;;;;;23.95;38.31;95291.31;5025213;28;20222;-69
2023/05/07 11:01:58;;;;;;;7.93;4.82;;;;;;;24.18;39.78;95288.00;5014374;28;20299;-69
2023/05/07 11:04:26;;;;;;;7.07;4.70;;;;;;;24.24;39.81;95286.13;5013959;28;20763;-70
2023/05/07 11:07:09;;;;;;;8.00;4.75;;;;;;;23.97;37.58;95291.81;5026326;28;20234;-71
2023/05/07 11:09:58;;;;;;;7.28;5.15;;;;;;;24.10;39.59;95292.06;5016642;28;20240;-70
2023/05/07 11:12:35;;;;;;;8.07;4.85;;;;;;;24.20;39.62;95288.53;5015632;28;20923;-70
2023/05/07 11:15:02;;;;;;;7.68;4.70;;;;;;;24.30;38.97;95282.31;5025326;28;20743;-70
2023/05/07 11:17:31;;;;;;;8.10;4.80;;;;;;;24.25;36.79;95283.16;5002543;28;20738;-69